sensor_id;sensor_type;location;lat;lon;timestamp;temperature;humidity
54930;DHT22;40833;53.238;6.576;2023-07-28T00:01:56;18.00;99.90
54930;DHT22;40833;53.238;6.576;2023-07-28T00:04:21;18.00;99.90
54930;DHT22;40833;53.238;6.576;2023-07-28T00:06:47;18.00;99.90
54930;DHT22;40833;53.238;6.576;2023-07-28T00:09:13;18.00;99.90
54930;DHT22;40833;53.238;6.576;2023-07-28T00:11:39;18.10;99.90
54930;DHT22;40833;53.238;6.576;2023-07-28T00:14:04;18.00;99.90
54930;DHT22;40833;53.238;6.576;2023-07-28T00:16:30;18.00;99.90
54930;DHT22;40833;53.238;6.576;2023-07-28T00:18:55;18.00;99.90
54930;DHT22;40833;53.238;6.576;2023-07-28T00:21:22;18.00;99.90
54930;DHT22;40833;53.238;6.576;2023-07-28T00:23:47;18.00;99.90
54930;DHT22;40833;53.238;6.576;2023-07-28T00:26:13;18.10;99.90
54930;DHT22;40833;53.238;6.576;2023-07-28T00:28:39;18.00;99.90
54930;DHT22;40833;53.238;6.576;2023-07-28T00:31:04;18.00;99.90
54930;DHT22;40833;53.238;6.576;2023-07-28T00:33:30;18.00;99.90
54930;DHT22;40833;53.238;6.576;2023-07-28T00:35:56;18.10;99.90
54930;DHT22;40833;53.238;6.576;2023-07-28T00:38:21;18.10;99.90
54930;DHT22;40833;53.238;6.576;2023-07-28T00:40:47;18.10;99.90
54930;DHT22;40833;53.238;6.576;2023-07-28T00:43:13;18.10;99.90
54930;DHT22;40833;53.238;6.576;2023-07-28T00:45:38;18.10;99.90
54930;DHT22;40833;53.238;6.576;2023-07-28T00:48:08;18.00;99.90
54930;DHT22;40833;53.238;6.576;2023-07-28T00:50:36;18.10;99.90
54930;DHT22;40833;53.238;6.576;2023-07-28T00:53:02;18.00;99.90
54930;DHT22;40833;53.238;6.576;2023-07-28T00:55:28;18.00;99.90
54930;DHT22;40833;53.238;6.576;2023-07-28T00:57:53;18.10;99.90
54930;DHT22;40833;53.238;6.576;2023-07-28T01:00:19;18.00;99.90
54930;DHT22;40833;53.238;6.576;2023-07-28T01:02:45;18.00;99.90
54930;DHT22;40833;53.238;6.576;2023-07-28T01:05:11;18.00;99.90
54930;DHT22;40833;53.238;6.576;2023-07-28T01:07:53;18.00;99.90
54930;DHT22;40833;53.238;6.576;2023-07-28T01:10:31;18.00;99.90
54930;DHT22;40833;53.238;6.576;2023-07-28T01:12:58;18.00;99.90
54930;DHT22;40833;53.238;6.576;2023-07-28T01:15:24;18.00;99.90
54930;DHT22;40833;53.238;6.576;2023-07-28T01:17:50;18.00;99.90
54930;DHT22;40833;53.238;6.576;2023-07-28T01:20:16;18.10;99.90
54930;DHT22;40833;53.238;6.576;2023-07-28T01:25:47;18.00;99.90
54930;DHT22;40833;53.238;6.576;2023-07-28T01:28:13;18.00;99.90
54930;DHT22;40833;53.238;6.576;2023-07-28T01:30:40;18.00;99.90
54930;DHT22;40833;53.238;6.576;2023-07-28T01:33:07;18.00;99.90
54930;DHT22;40833;53.238;6.576;2023-07-28T01:35:33;18.00;99.90
54930;DHT22;40833;53.238;6.576;2023-07-28T01:37:59;18.10;99.90
54930;DHT22;40833;53.238;6.576;2023-07-28T01:40:24;18.10;99.90
54930;DHT22;40833;53.238;6.576;2023-07-28T01:42:50;18.10;99.90
54930;DHT22;40833;53.238;6.576;2023-07-28T01:45:16;18.00;99.90
54930;DHT22;40833;53.238;6.576;2023-07-28T01:47:41;18.00;99.90
54930;DHT22;40833;53.238;6.576;2023-07-28T01:50:07;18.00;99.90
54930;DHT22;40833;53.238;6.576;2023-07-28T01:52:33;18.00;99.90
54930;DHT22;40833;53.238;6.576;2023-07-28T01:54:58;18.00;99.90
54930;DHT22;40833;53.238;6.576;2023-07-28T01:57:24;18.00;99.90
54930;DHT22;40833;53.238;6.576;2023-07-28T01:59:53;18.00;99.90
54930;DHT22;40833;53.238;6.576;2023-07-28T02:02:19;18.00;99.90
54930;DHT22;40833;53.238;6.576;2023-07-28T02:04:45;18.00;99.90
54930;DHT22;40833;53.238;6.576;2023-07-28T02:07:10;18.00;99.90
54930;DHT22;40833;53.238;6.576;2023-07-28T02:09:36;18.00;99.90
54930;DHT22;40833;53.238;6.576;2023-07-28T02:12:01;18.00;99.90
54930;DHT22;40833;53.238;6.576;2023-07-28T02:14:27;18.00;99.90
54930;DHT22;40833;53.238;6.576;2023-07-28T02:16:53;18.00;99.90
54930;DHT22;40833;53.238;6.576;2023-07-28T02:19:18;18.00;99.90
54930;DHT22;40833;53.238;6.576;2023-07-28T02:21:44;18.00;99.90
54930;DHT22;40833;53.238;6.576;2023-07-28T02:24:10;18.00;99.90
54930;DHT22;40833;53.238;6.576;2023-07-28T02:26:35;18.00;99.90
54930;DHT22;40833;53.238;6.576;2023-07-28T02:29:01;18.00;99.90
54930;DHT22;40833;53.238;6.576;2023-07-28T02:31:27;18.00;99.90
54930;DHT22;40833;53.238;6.576;2023-07-28T02:33:52;18.00;99.90
54930;DHT22;40833;53.238;6.576;2023-07-28T02:36:18;18.00;99.90
54930;DHT22;40833;53.238;6.576;2023-07-28T02:38:44;18.00;99.90
54930;DHT22;40833;53.238;6.576;2023-07-28T02:41:10;18.00;99.90
54930;DHT22;40833;53.238;6.576;2023-07-28T02:43:36;18.00;99.90
54930;DHT22;40833;53.238;6.576;2023-07-28T02:46:03;18.00;99.90
54930;DHT22;40833;53.238;6.576;2023-07-28T02:48:28;18.00;99.90
54930;DHT22;40833;53.238;6.576;2023-07-28T02:50:54;18.00;99.90
54930;DHT22;40833;53.238;6.576;2023-07-28T02:53:20;18.00;99.90
54930;DHT22;40833;53.238;6.576;2023-07-28T02:55:46;18.00;99.90
54930;DHT22;40833;53.238;6.576;2023-07-28T02:58:13;18.00;99.90
54930;DHT22;40833;53.238;6.576;2023-07-28T03:00:43;18.00;99.90
54930;DHT22;40833;53.238;6.576;2023-07-28T03:03:09;18.00;99.90
54930;DHT22;40833;53.238;6.576;2023-07-28T03:05:39;18.00;99.90
54930;DHT22;40833;53.238;6.576;2023-07-28T03:08:05;17.90;99.90
54930;DHT22;40833;53.238;6.576;2023-07-28T03:10:32;17.90;99.90
54930;DHT22;40833;53.238;6.576;2023-07-28T03:12:58;18.00;99.90
54930;DHT22;40833;53.238;6.576;2023-07-28T03:15:24;18.00;99.90
54930;DHT22;40833;53.238;6.576;2023-07-28T03:17:50;18.00;99.90
54930;DHT22;40833;53.238;6.576;2023-07-28T03:20:16;18.00;99.90
54930;DHT22;40833;53.238;6.576;2023-07-28T03:22:42;17.90;99.90
54930;DHT22;40833;53.238;6.576;2023-07-28T03:25:08;18.00;99.90
54930;DHT22;40833;53.238;6.576;2023-07-28T03:27:34;18.00;99.90
54930;DHT22;40833;53.238;6.576;2023-07-28T03:30:00;17.90;99.90
54930;DHT22;40833;53.238;6.576;2023-07-28T03:32:26;18.00;99.90
54930;DHT22;40833;53.238;6.576;2023-07-28T03:34:52;18.00;99.90
54930;DHT22;40833;53.238;6.576;2023-07-28T03:37:17;17.90;99.90
54930;DHT22;40833;53.238;6.576;2023-07-28T03:39:43;17.90;99.90
54930;DHT22;40833;53.238;6.576;2023-07-28T03:42:09;17.90;99.90
54930;DHT22;40833;53.238;6.576;2023-07-28T03:44:35;17.90;99.90
54930;DHT22;40833;53.238;6.576;2023-07-28T03:47:03;17.90;99.90
54930;DHT22;40833;53.238;6.576;2023-07-28T03:49:29;17.90;99.90
54930;DHT22;40833;53.238;6.576;2023-07-28T03:51:55;17.90;99.90
54930;DHT22;40833;53.238;6.576;2023-07-28T03:54:21;17.90;99.90
54930;DHT22;40833;53.238;6.576;2023-07-28T03:56:46;17.90;99.90
54930;DHT22;40833;53.238;6.576;2023-07-28T03:59:12;17.90;99.90
54930;DHT22;40833;53.238;6.576;2023-07-28T04:01:38;17.90;99.90
54930;DHT22;40833;53.238;6.576;2023-07-28T04:04:03;17.90;99.90
54930;DHT22;40833;53.238;6.576;2023-07-28T04:06:42;17.90;99.90
54930;DHT22;40833;53.238;6.576;2023-07-28T04:09:09;17.90;99.90
54930;DHT22;40833;53.238;6.576;2023-07-28T04:11:34;17.90;99.90
54930;DHT22;40833;53.238;6.576;2023-07-28T04:14:00;17.90;99.90
54930;DHT22;40833;53.238;6.576;2023-07-28T04:16:26;18.00;99.90
54930;DHT22;40833;53.238;6.576;2023-07-28T04:18:51;17.90;99.90
54930;DHT22;40833;53.238;6.576;2023-07-28T04:21:17;18.00;99.90
54930;DHT22;40833;53.238;6.576;2023-07-28T04:23:43;18.00;99.90
54930;DHT22;40833;53.238;6.576;2023-07-28T04:26:09;18.00;99.90
54930;DHT22;40833;53.238;6.576;2023-07-28T04:28:35;17.90;99.90
54930;DHT22;40833;53.238;6.576;2023-07-28T04:31:00;18.00;99.90
54930;DHT22;40833;53.238;6.576;2023-07-28T04:33:26;18.00;99.90
54930;DHT22;40833;53.238;6.576;2023-07-28T04:35:52;18.00;99.90
54930;DHT22;40833;53.238;6.576;2023-07-28T04:38:17;18.00;99.90
54930;DHT22;40833;53.238;6.576;2023-07-28T04:40:44;18.00;99.90
54930;DHT22;40833;53.238;6.576;2023-07-28T04:43:10;17.90;99.90
54930;DHT22;40833;53.238;6.576;2023-07-28T04:45:36;18.00;99.90
54930;DHT22;40833;53.238;6.576;2023-07-28T04:48:01;18.00;99.90
54930;DHT22;40833;53.238;6.576;2023-07-28T04:50:28;17.70;99.90
54930;DHT22;40833;53.238;6.576;2023-07-28T04:52:53;18.00;99.90
54930;DHT22;40833;53.238;6.576;2023-07-28T04:55:19;18.10;99.90
54930;DHT22;40833;53.238;6.576;2023-07-28T04:57:45;18.00;99.90
54930;DHT22;40833;53.238;6.576;2023-07-28T05:00:11;18.00;99.90
54930;DHT22;40833;53.238;6.576;2023-07-28T05:02:36;18.10;99.90
54930;DHT22;40833;53.238;6.576;2023-07-28T05:05:02;18.10;99.90
54930;DHT22;40833;53.238;6.576;2023-07-28T05:07:28;18.10;99.90
54930;DHT22;40833;53.238;6.576;2023-07-28T05:09:54;18.10;99.90
54930;DHT22;40833;53.238;6.576;2023-07-28T05:12:20;18.20;99.90
54930;DHT22;40833;53.238;6.576;2023-07-28T05:14:46;18.20;99.90
54930;DHT22;40833;53.238;6.576;2023-07-28T05:17:12;18.20;99.90
54930;DHT22;40833;53.238;6.576;2023-07-28T05:19:37;18.20;99.90
54930;DHT22;40833;53.238;6.576;2023-07-28T05:22:03;18.20;99.90
54930;DHT22;40833;53.238;6.576;2023-07-28T05:24:29;18.20;99.90
54930;DHT22;40833;53.238;6.576;2023-07-28T05:26:55;18.10;99.90
54930;DHT22;40833;53.238;6.576;2023-07-28T05:29:20;18.20;99.90
54930;DHT22;40833;53.238;6.576;2023-07-28T05:31:46;18.20;99.90
54930;DHT22;40833;53.238;6.576;2023-07-28T05:34:12;18.20;99.90
54930;DHT22;40833;53.238;6.576;2023-07-28T05:36:40;18.20;99.90
54930;DHT22;40833;53.238;6.576;2023-07-28T05:39:06;18.20;99.90
54930;DHT22;40833;53.238;6.576;2023-07-28T05:41:31;18.20;99.90
54930;DHT22;40833;53.238;6.576;2023-07-28T05:43:57;18.20;99.90
54930;DHT22;40833;53.238;6.576;2023-07-28T05:46:23;18.70;99.90
54930;DHT22;40833;53.238;6.576;2023-07-28T05:48:49;18.20;99.90
54930;DHT22;40833;53.238;6.576;2023-07-28T05:51:15;18.30;99.90
54930;DHT22;40833;53.238;6.576;2023-07-28T05:53:40;18.30;99.90
54930;DHT22;40833;53.238;6.576;2023-07-28T05:56:06;18.30;99.90
54930;DHT22;40833;53.238;6.576;2023-07-28T05:58:32;18.30;99.90
54930;DHT22;40833;53.238;6.576;2023-07-28T06:00:58;18.30;99.90
54930;DHT22;40833;53.238;6.576;2023-07-28T06:03:25;18.40;99.90
54930;DHT22;40833;53.238;6.576;2023-07-28T06:05:52;18.40;99.90
54930;DHT22;40833;53.238;6.576;2023-07-28T06:08:17;18.40;99.90
54930;DHT22;40833;53.238;6.576;2023-07-28T06:10:43;18.40;99.90
54930;DHT22;40833;53.238;6.576;2023-07-28T06:13:09;18.40;99.90
54930;DHT22;40833;53.238;6.576;2023-07-28T06:15:34;18.50;99.90
54930;DHT22;40833;53.238;6.576;2023-07-28T06:18:01;18.50;99.90
54930;DHT22;40833;53.238;6.576;2023-07-28T06:20:29;19.20;99.90
54930;DHT22;40833;53.238;6.576;2023-07-28T06:22:55;18.50;99.90
54930;DHT22;40833;53.238;6.576;2023-07-28T06:25:20;18.60;99.90
54930;DHT22;40833;53.238;6.576;2023-07-28T06:27:46;18.60;99.90
54930;DHT22;40833;53.238;6.576;2023-07-28T06:30:12;18.60;99.90
54930;DHT22;40833;53.238;6.576;2023-07-28T06:32:38;18.70;99.90
54930;DHT22;40833;53.238;6.576;2023-07-28T06:35:04;18.80;99.90
54930;DHT22;40833;53.238;6.576;2023-07-28T06:37:32;18.90;99.90
54930;DHT22;40833;53.238;6.576;2023-07-28T06:39:58;18.90;99.90
54930;DHT22;40833;53.238;6.576;2023-07-28T06:42:24;18.90;99.90
54930;DHT22;40833;53.238;6.576;2023-07-28T06:44:51;18.90;99.90
54930;DHT22;40833;53.238;6.576;2023-07-28T06:47:18;18.90;99.90
54930;DHT22;40833;53.238;6.576;2023-07-28T06:49:44;18.90;99.90
54930;DHT22;40833;53.238;6.576;2023-07-28T06:52:10;19.00;99.90
54930;DHT22;40833;53.238;6.576;2023-07-28T06:54:36;19.00;99.90
54930;DHT22;40833;53.238;6.576;2023-07-28T06:57:02;18.90;99.90
54930;DHT22;40833;53.238;6.576;2023-07-28T06:59:28;19.00;99.90
54930;DHT22;40833;53.238;6.576;2023-07-28T07:01:53;19.00;99.90
54930;DHT22;40833;53.238;6.576;2023-07-28T07:04:19;19.00;99.90
54930;DHT22;40833;53.238;6.576;2023-07-28T07:06:45;19.10;99.90
54930;DHT22;40833;53.238;6.576;2023-07-28T07:09:11;19.10;99.90
54930;DHT22;40833;53.238;6.576;2023-07-28T07:11:40;19.10;99.90
54930;DHT22;40833;53.238;6.576;2023-07-28T07:14:06;19.10;99.90
54930;DHT22;40833;53.238;6.576;2023-07-28T07:16:32;19.20;99.90
54930;DHT22;40833;53.238;6.576;2023-07-28T07:18:58;19.20;99.90
54930;DHT22;40833;53.238;6.576;2023-07-28T07:21:24;19.30;99.90
54930;DHT22;40833;53.238;6.576;2023-07-28T07:23:49;19.30;99.90
54930;DHT22;40833;53.238;6.576;2023-07-28T07:26:15;19.40;99.90
54930;DHT22;40833;53.238;6.576;2023-07-28T07:28:41;19.40;99.90
54930;DHT22;40833;53.238;6.576;2023-07-28T07:31:13;19.40;99.90
54930;DHT22;40833;53.238;6.576;2023-07-28T07:33:39;19.50;99.90
54930;DHT22;40833;53.238;6.576;2023-07-28T07:36:05;19.50;99.90
54930;DHT22;40833;53.238;6.576;2023-07-28T07:38:31;19.60;99.90
54930;DHT22;40833;53.238;6.576;2023-07-28T07:40:56;19.50;99.90
54930;DHT22;40833;53.238;6.576;2023-07-28T07:43:22;19.60;99.90
54930;DHT22;40833;53.238;6.576;2023-07-28T07:45:48;19.70;99.90
54930;DHT22;40833;53.238;6.576;2023-07-28T07:48:16;19.80;99.90
54930;DHT22;40833;53.238;6.576;2023-07-28T07:50:42;19.80;99.90
54930;DHT22;40833;53.238;6.576;2023-07-28T07:53:08;19.90;99.90
54930;DHT22;40833;53.238;6.576;2023-07-28T07:55:34;19.90;99.90
54930;DHT22;40833;53.238;6.576;2023-07-28T07:58:00;20.10;99.90
54930;DHT22;40833;53.238;6.576;2023-07-28T08:00:25;20.10;99.90
54930;DHT22;40833;53.238;6.576;2023-07-28T08:02:51;20.20;99.90
54930;DHT22;40833;53.238;6.576;2023-07-28T08:05:17;20.20;99.90
54930;DHT22;40833;53.238;6.576;2023-07-28T08:07:42;20.20;99.90
54930;DHT22;40833;53.238;6.576;2023-07-28T08:10:09;20.20;99.90
54930;DHT22;40833;53.238;6.576;2023-07-28T08:12:35;20.20;99.90
54930;DHT22;40833;53.238;6.576;2023-07-28T08:15:01;20.40;99.90
54930;DHT22;40833;53.238;6.576;2023-07-28T08:17:26;20.50;99.90
54930;DHT22;40833;53.238;6.576;2023-07-28T08:19:52;20.50;99.90
54930;DHT22;40833;53.238;6.576;2023-07-28T08:22:18;20.50;99.90
54930;DHT22;40833;53.238;6.576;2023-07-28T08:24:43;20.30;99.90
54930;DHT22;40833;53.238;6.576;2023-07-28T08:27:09;20.30;99.90
54930;DHT22;40833;53.238;6.576;2023-07-28T08:29:35;20.20;99.90
54930;DHT22;40833;53.238;6.576;2023-07-28T08:32:00;20.20;99.90
54930;DHT22;40833;53.238;6.576;2023-07-28T08:34:26;20.10;99.90
54930;DHT22;40833;53.238;6.576;2023-07-28T08:36:52;20.10;99.90
54930;DHT22;40833;53.238;6.576;2023-07-28T08:39:18;20.10;99.90
54930;DHT22;40833;53.238;6.576;2023-07-28T08:41:44;20.10;99.90
54930;DHT22;40833;53.238;6.576;2023-07-28T08:44:09;20.20;99.90
54930;DHT22;40833;53.238;6.576;2023-07-28T08:46:36;20.30;99.90
54930;DHT22;40833;53.238;6.576;2023-07-28T08:49:02;20.50;99.90
54930;DHT22;40833;53.238;6.576;2023-07-28T08:51:27;20.60;99.90
54930;DHT22;40833;53.238;6.576;2023-07-28T08:53:53;20.70;99.90
54930;DHT22;40833;53.238;6.576;2023-07-28T08:56:20;20.80;99.90
54930;DHT22;40833;53.238;6.576;2023-07-28T08:58:46;20.90;99.90
54930;DHT22;40833;53.238;6.576;2023-07-28T09:01:12;21.00;99.90
54930;DHT22;40833;53.238;6.576;2023-07-28T09:03:40;21.00;99.90
54930;DHT22;40833;53.238;6.576;2023-07-28T09:06:07;21.20;99.90
54930;DHT22;40833;53.238;6.576;2023-07-28T09:08:37;21.20;99.90
54930;DHT22;40833;53.238;6.576;2023-07-28T09:11:04;21.30;99.90
54930;DHT22;40833;53.238;6.576;2023-07-28T09:13:39;21.40;99.90
54930;DHT22;40833;53.238;6.576;2023-07-28T09:16:20;21.40;99.90
54930;DHT22;40833;53.238;6.576;2023-07-28T09:18:45;21.50;99.90
54930;DHT22;40833;53.238;6.576;2023-07-28T09:21:18;21.50;99.90
54930;DHT22;40833;53.238;6.576;2023-07-28T09:23:47;21.50;99.90
54930;DHT22;40833;53.238;6.576;2023-07-28T09:26:14;21.40;99.90
54930;DHT22;40833;53.238;6.576;2023-07-28T09:28:41;21.30;99.90
54930;DHT22;40833;53.238;6.576;2023-07-28T09:31:07;21.30;99.90
54930;DHT22;40833;53.238;6.576;2023-07-28T09:33:35;21.20;99.90
54930;DHT22;40833;53.238;6.576;2023-07-28T09:36:12;21.20;99.90
54930;DHT22;40833;53.238;6.576;2023-07-28T09:38:40;21.30;99.90
54930;DHT22;40833;53.238;6.576;2023-07-28T09:41:08;21.50;99.90
54930;DHT22;40833;53.238;6.576;2023-07-28T09:43:39;21.80;99.90
54930;DHT22;40833;53.238;6.576;2023-07-28T09:46:07;21.90;99.90
54930;DHT22;40833;53.238;6.576;2023-07-28T09:48:34;22.10;99.90
54930;DHT22;40833;53.238;6.576;2023-07-28T09:51:08;22.10;99.90
54930;DHT22;40833;53.238;6.576;2023-07-28T09:53:42;22.10;99.90
54930;DHT22;40833;53.238;6.576;2023-07-28T09:56:09;22.20;99.90
54930;DHT22;40833;53.238;6.576;2023-07-28T09:58:38;22.30;99.90
54930;DHT22;40833;53.238;6.576;2023-07-28T10:01:07;22.40;99.90
54930;DHT22;40833;53.238;6.576;2023-07-28T10:03:34;22.50;99.90
54930;DHT22;40833;53.238;6.576;2023-07-28T10:06:00;22.40;99.90
54930;DHT22;40833;53.238;6.576;2023-07-28T10:08:26;22.40;99.90
54930;DHT22;40833;53.238;6.576;2023-07-28T10:10:52;22.40;99.90
54930;DHT22;40833;53.238;6.576;2023-07-28T10:13:21;22.60;99.90
54930;DHT22;40833;53.238;6.576;2023-07-28T10:15:47;22.70;99.90
54930;DHT22;40833;53.238;6.576;2023-07-28T10:18:14;23.00;99.90
54930;DHT22;40833;53.238;6.576;2023-07-28T10:20:42;23.10;99.90
54930;DHT22;40833;53.238;6.576;2023-07-28T10:23:16;23.10;99.90
54930;DHT22;40833;53.238;6.576;2023-07-28T10:25:43;23.10;99.90
54930;DHT22;40833;53.238;6.576;2023-07-28T10:28:30;23.00;99.90
54930;DHT22;40833;53.238;6.576;2023-07-28T10:30:58;22.90;99.90
54930;DHT22;40833;53.238;6.576;2023-07-28T10:33:45;22.90;99.90
54930;DHT22;40833;53.238;6.576;2023-07-28T10:36:18;22.70;99.90
54930;DHT22;40833;53.238;6.576;2023-07-28T10:41:35;22.50;99.90
54930;DHT22;40833;53.238;6.576;2023-07-28T10:44:01;22.60;99.90
54930;DHT22;40833;53.238;6.576;2023-07-28T10:46:27;22.70;99.90
54930;DHT22;40833;53.238;6.576;2023-07-28T10:48:53;22.90;99.90
54930;DHT22;40833;53.238;6.576;2023-07-28T10:51:26;23.00;99.90
54930;DHT22;40833;53.238;6.576;2023-07-28T10:53:57;22.90;99.90
54930;DHT22;40833;53.238;6.576;2023-07-28T10:56:24;22.80;99.90
54930;DHT22;40833;53.238;6.576;2023-07-28T10:59:01;22.80;99.90
54930;DHT22;40833;53.238;6.576;2023-07-28T11:01:45;22.80;99.90
54930;DHT22;40833;53.238;6.576;2023-07-28T11:04:18;22.90;99.90
54930;DHT22;40833;53.238;6.576;2023-07-28T11:06:46;23.10;99.90
54930;DHT22;40833;53.238;6.576;2023-07-28T11:09:14;23.20;99.90
54930;DHT22;40833;53.238;6.576;2023-07-28T11:11:40;23.40;99.90
54930;DHT22;40833;53.238;6.576;2023-07-28T11:14:07;23.50;99.90
54930;DHT22;40833;53.238;6.576;2023-07-28T11:16:38;23.50;99.90
54930;DHT22;40833;53.238;6.576;2023-07-28T11:19:09;23.60;99.90
54930;DHT22;40833;53.238;6.576;2023-07-28T11:21:42;23.50;99.90
54930;DHT22;40833;53.238;6.576;2023-07-28T11:24:08;23.60;99.90
54930;DHT22;40833;53.238;6.576;2023-07-28T11:26:35;23.70;99.90
54930;DHT22;40833;53.238;6.576;2023-07-28T11:29:01;23.70;99.90
54930;DHT22;40833;53.238;6.576;2023-07-28T11:31:27;23.80;99.90
54930;DHT22;40833;53.238;6.576;2023-07-28T11:33:53;23.90;99.90
54930;DHT22;40833;53.238;6.576;2023-07-28T11:36:26;24.10;99.90
54930;DHT22;40833;53.238;6.576;2023-07-28T11:38:55;24.40;99.90
54930;DHT22;40833;53.238;6.576;2023-07-28T11:41:22;24.50;99.90
54930;DHT22;40833;53.238;6.576;2023-07-28T11:43:49;24.70;99.90
54930;DHT22;40833;53.238;6.576;2023-07-28T11:46:41;24.80;99.90
54930;DHT22;40833;53.238;6.576;2023-07-28T11:49:13;24.80;99.90
54930;DHT22;40833;53.238;6.576;2023-07-28T11:51:40;24.90;99.90
54930;DHT22;40833;53.238;6.576;2023-07-28T11:54:14;25.20;99.90
54930;DHT22;40833;53.238;6.576;2023-07-28T11:56:45;25.10;99.90
54930;DHT22;40833;53.238;6.576;2023-07-28T11:59:11;25.20;99.90
54930;DHT22;40833;53.238;6.576;2023-07-28T12:01:52;25.30;99.90
54930;DHT22;40833;53.238;6.576;2023-07-28T12:04:23;25.30;99.90
54930;DHT22;40833;53.238;6.576;2023-07-28T12:07:11;25.40;99.90
54930;DHT22;40833;53.238;6.576;2023-07-28T12:12:16;25.40;99.90
54930;DHT22;40833;53.238;6.576;2023-07-28T12:14:42;25.40;99.90
54930;DHT22;40833;53.238;6.576;2023-07-28T12:17:14;25.50;99.90
54930;DHT22;40833;53.238;6.576;2023-07-28T12:20:05;25.60;99.90
54930;DHT22;40833;53.238;6.576;2023-07-28T12:22:38;25.40;99.90
54930;DHT22;40833;53.238;6.576;2023-07-28T12:25:04;25.40;99.90
54930;DHT22;40833;53.238;6.576;2023-07-28T12:27:30;25.60;99.90
54930;DHT22;40833;53.238;6.576;2023-07-28T12:29:56;25.70;99.90
54930;DHT22;40833;53.238;6.576;2023-07-28T12:32:22;25.90;99.90
54930;DHT22;40833;53.238;6.576;2023-07-28T12:34:49;26.20;99.90
54930;DHT22;40833;53.238;6.576;2023-07-28T12:37:15;26.30;99.90
54930;DHT22;40833;53.238;6.576;2023-07-28T12:39:41;26.30;99.90
54930;DHT22;40833;53.238;6.576;2023-07-28T12:42:08;26.10;99.90
54930;DHT22;40833;53.238;6.576;2023-07-28T12:44:35;25.90;99.90
54930;DHT22;40833;53.238;6.576;2023-07-28T12:47:01;25.70;99.90
54930;DHT22;40833;53.238;6.576;2023-07-28T12:49:27;25.60;99.90
54930;DHT22;40833;53.238;6.576;2023-07-28T12:52:00;25.50;99.90
54930;DHT22;40833;53.238;6.576;2023-07-28T12:54:26;25.50;99.90
54930;DHT22;40833;53.238;6.576;2023-07-28T12:56:54;25.40;99.90
54930;DHT22;40833;53.238;6.576;2023-07-28T12:59:20;25.40;99.90
54930;DHT22;40833;53.238;6.576;2023-07-28T13:01:46;25.50;99.90
54930;DHT22;40833;53.238;6.576;2023-07-28T13:04:12;25.60;99.90
54930;DHT22;40833;53.238;6.576;2023-07-28T13:06:37;25.60;99.90
54930;DHT22;40833;53.238;6.576;2023-07-28T13:09:03;25.70;99.90
54930;DHT22;40833;53.238;6.576;2023-07-28T13:11:30;25.80;99.90
54930;DHT22;40833;53.238;6.576;2023-07-28T13:13:55;25.90;99.90
54930;DHT22;40833;53.238;6.576;2023-07-28T13:16:21;25.60;99.90
54930;DHT22;40833;53.238;6.576;2023-07-28T13:18:47;25.60;99.90
54930;DHT22;40833;53.238;6.576;2023-07-28T13:21:13;25.80;99.90
54930;DHT22;40833;53.238;6.576;2023-07-28T13:23:39;26.10;99.90
54930;DHT22;40833;53.238;6.576;2023-07-28T13:26:05;26.30;99.90
54930;DHT22;40833;53.238;6.576;2023-07-28T13:28:32;26.50;99.90
54930;DHT22;40833;53.238;6.576;2023-07-28T13:30:58;26.70;99.90
54930;DHT22;40833;53.238;6.576;2023-07-28T13:33:23;27.00;99.90
54930;DHT22;40833;53.238;6.576;2023-07-28T13:35:49;27.00;99.90
54930;DHT22;40833;53.238;6.576;2023-07-28T13:38:15;27.10;99.90
54930;DHT22;40833;53.238;6.576;2023-07-28T13:40:41;27.10;99.90
54930;DHT22;40833;53.238;6.576;2023-07-28T13:43:06;27.00;99.90
54930;DHT22;40833;53.238;6.576;2023-07-28T13:45:32;27.00;99.90
54930;DHT22;40833;53.238;6.576;2023-07-28T13:47:58;27.00;99.90
54930;DHT22;40833;53.238;6.576;2023-07-28T13:50:24;27.20;99.90
54930;DHT22;40833;53.238;6.576;2023-07-28T13:52:49;27.10;99.90
54930;DHT22;40833;53.238;6.576;2023-07-28T13:55:15;26.80;99.90
54930;DHT22;40833;53.238;6.576;2023-07-28T13:57:41;26.70;99.90
54930;DHT22;40833;53.238;6.576;2023-07-28T14:00:07;26.50;99.90
54930;DHT22;40833;53.238;6.576;2023-07-28T14:02:36;26.40;99.90
54930;DHT22;40833;53.238;6.576;2023-07-28T14:05:02;26.30;99.90
54930;DHT22;40833;53.238;6.576;2023-07-28T14:07:28;26.40;99.90
54930;DHT22;40833;53.238;6.576;2023-07-28T14:09:54;26.40;99.90
54930;DHT22;40833;53.238;6.576;2023-07-28T14:12:19;26.60;99.90
54930;DHT22;40833;53.238;6.576;2023-07-28T14:14:45;26.60;99.90
54930;DHT22;40833;53.238;6.576;2023-07-28T14:17:11;26.80;99.90
54930;DHT22;40833;53.238;6.576;2023-07-28T14:19:38;27.00;99.90
54930;DHT22;40833;53.238;6.576;2023-07-28T14:22:04;26.90;99.90
54930;DHT22;40833;53.238;6.576;2023-07-28T14:24:30;26.80;99.90
54930;DHT22;40833;53.238;6.576;2023-07-28T14:26:56;26.80;99.90
54930;DHT22;40833;53.238;6.576;2023-07-28T14:29:21;26.80;99.90
54930;DHT22;40833;53.238;6.576;2023-07-28T14:31:48;26.90;99.90
54930;DHT22;40833;53.238;6.576;2023-07-28T14:34:13;27.00;99.90
54930;DHT22;40833;53.238;6.576;2023-07-28T14:36:39;26.90;99.90
54930;DHT22;40833;53.238;6.576;2023-07-28T14:39:06;26.80;99.90
54930;DHT22;40833;53.238;6.576;2023-07-28T14:41:32;26.70;99.90
54930;DHT22;40833;53.238;6.576;2023-07-28T14:43:57;26.60;99.90
54930;DHT22;40833;53.238;6.576;2023-07-28T14:46:23;26.40;99.90
54930;DHT22;40833;53.238;6.576;2023-07-28T14:48:51;26.20;99.90
54930;DHT22;40833;53.238;6.576;2023-07-28T14:51:17;26.10;99.90
54930;DHT22;40833;53.238;6.576;2023-07-28T14:53:43;25.90;99.90
54930;DHT22;40833;53.238;6.576;2023-07-28T14:56:11;25.80;99.90
54930;DHT22;40833;53.238;6.576;2023-07-28T14:58:36;25.80;99.90
54930;DHT22;40833;53.238;6.576;2023-07-28T15:01:03;25.80;99.90
54930;DHT22;40833;53.238;6.576;2023-07-28T15:03:30;25.70;99.90
54930;DHT22;40833;53.238;6.576;2023-07-28T15:05:57;25.70;99.90
54930;DHT22;40833;53.238;6.576;2023-07-28T15:08:23;25.80;99.90
54930;DHT22;40833;53.238;6.576;2023-07-28T15:10:49;26.10;99.90
54930;DHT22;40833;53.238;6.576;2023-07-28T15:13:14;26.30;99.90
54930;DHT22;40833;53.238;6.576;2023-07-28T15:15:40;26.40;99.90
54930;DHT22;40833;53.238;6.576;2023-07-28T15:18:06;26.50;99.90
54930;DHT22;40833;53.238;6.576;2023-07-28T15:20:33;26.80;99.90
54930;DHT22;40833;53.238;6.576;2023-07-28T15:22:58;26.80;99.90
54930;DHT22;40833;53.238;6.576;2023-07-28T15:25:25;26.60;99.90
54930;DHT22;40833;53.238;6.576;2023-07-28T15:27:51;26.40;99.90
54930;DHT22;40833;53.238;6.576;2023-07-28T15:30:17;26.30;99.90
54930;DHT22;40833;53.238;6.576;2023-07-28T15:32:43;26.30;99.90
54930;DHT22;40833;53.238;6.576;2023-07-28T15:35:08;26.20;99.90
54930;DHT22;40833;53.238;6.576;2023-07-28T15:37:36;26.10;99.90